sensor_id;sensor_type;location;lat;lon;timestamp;pressure;altitude;pressure_sealevel;temperature
24201;BMP280;2801;50.972;7.856;2023-10-31T00:01:21;95662.56;;;12.49
24201;BMP280;2801;50.972;7.856;2023-10-31T00:03:48;95662.88;;;12.40
24201;BMP280;2801;50.972;7.856;2023-10-31T00:06:16;95666.66;;;12.25
24201;BMP280;2801;50.972;7.856;2023-10-31T00:08:43;95676.94;;;12.13
24201;BMP280;2801;50.972;7.856;2023-10-31T00:11:11;95688.41;;;12.06
24201;BMP280;2801;50.972;7.856;2023-10-31T00:13:38;95677.25;;;12.04
24201;BMP280;2801;50.972;7.856;2023-10-31T00:16:06;95694.81;;;11.88
24201;BMP280;2801;50.972;7.856;2023-10-31T00:18:34;95690.94;;;11.85
24201;BMP280;2801;50.972;7.856;2023-10-31T00:21:00;95696.31;;;11.82
24201;BMP280;2801;50.972;7.856;2023-10-31T00:23:27;95688.19;;;11.75
24201;BMP280;2801;50.972;7.856;2023-10-31T00:25:55;95695.09;;;11.72
24201;BMP280;2801;50.972;7.856;2023-10-31T00:28:22;95701.13;;;11.62
24201;BMP280;2801;50.972;7.856;2023-10-31T00:30:51;95718.72;;;11.60
24201;BMP280;2801;50.972;7.856;2023-10-31T00:33:18;95715.22;;;11.56
24201;BMP280;2801;50.972;7.856;2023-10-31T00:35:45;95724.38;;;11.51
24201;BMP280;2801;50.972;7.856;2023-10-31T00:38:14;95723.50;;;11.40
24201;BMP280;2801;50.972;7.856;2023-10-31T00:40:41;95722.03;;;11.43
24201;BMP280;2801;50.972;7.856;2023-10-31T00:43:08;95733.16;;;11.45
24201;BMP280;2801;50.972;7.856;2023-10-31T00:45:36;95736.16;;;11.40
24201;BMP280;2801;50.972;7.856;2023-10-31T00:48:03;95736.94;;;11.40
24201;BMP280;2801;50.972;7.856;2023-10-31T00:50:31;95729.63;;;11.37
24201;BMP280;2801;50.972;7.856;2023-10-31T00:52:58;95731.53;;;11.37
24201;BMP280;2801;50.972;7.856;2023-10-31T00:55:25;95728.06;;;11.32
24201;BMP280;2801;50.972;7.856;2023-10-31T00:57:52;95733.44;;;11.36
24201;BMP280;2801;50.972;7.856;2023-10-31T01:00:19;95728.06;;;11.36
24201;BMP280;2801;50.972;7.856;2023-10-31T01:02:46;95728.84;;;11.33
24201;BMP280;2801;50.972;7.856;2023-10-31T01:05:13;95728.41;;;11.31
24201;BMP280;2801;50.972;7.856;2023-10-31T01:07:41;95723.47;;;11.33
24201;BMP280;2801;50.972;7.856;2023-10-31T01:10:08;95734.56;;;11.32
24201;BMP280;2801;50.972;7.856;2023-10-31T01:12:35;95729.59;;;11.33
24201;BMP280;2801;50.972;7.856;2023-10-31T01:15:02;95723.41;;;11.29
24201;BMP280;2801;50.972;7.856;2023-10-31T01:17:30;95724.94;;;11.30
24201;BMP280;2801;50.972;7.856;2023-10-31T01:19:57;95730.00;;;11.36
24201;BMP280;2801;50.972;7.856;2023-10-31T01:22:24;95731.88;;;11.32
24201;BMP280;2801;50.972;7.856;2023-10-31T01:24:52;95729.59;;;11.33
24201;BMP280;2801;50.972;7.856;2023-10-31T01:27:20;95738.34;;;11.27
24201;BMP280;2801;50.972;7.856;2023-10-31T01:29:47;95741.38;;;11.25
24201;BMP280;2801;50.972;7.856;2023-10-31T01:32:14;95746.03;;;11.28
24201;BMP280;2801;50.972;7.856;2023-10-31T01:34:48;95749.41;;;11.22
24201;BMP280;2801;50.972;7.856;2023-10-31T01:37:16;95752.84;;;11.22
24201;BMP280;2801;50.972;7.856;2023-10-31T01:39:46;95743.25;;;11.21
24201;BMP280;2801;50.972;7.856;2023-10-31T01:42:14;95758.63;;;11.24
24201;BMP280;2801;50.972;7.856;2023-10-31T01:44:44;95750.94;;;11.23
24201;BMP280;2801;50.972;7.856;2023-10-31T01:47:11;95750.53;;;11.21
24201;BMP280;2801;50.972;7.856;2023-10-31T01:49:40;95758.25;;;11.26
24201;BMP280;2801;50.972;7.856;2023-10-31T01:52:07;95756.31;;;11.23
24201;BMP280;2801;50.972;7.856;2023-10-31T01:54:35;95753.63;;;11.23
24201;BMP280;2801;50.972;7.856;2023-10-31T01:57:05;95758.22;;;11.22
24201;BMP280;2801;50.972;7.856;2023-10-31T01:59:32;95762.75;;;11.18
24201;BMP280;2801;50.972;7.856;2023-10-31T02:02:01;95752.78;;;11.15
24201;BMP280;2801;50.972;7.856;2023-10-31T02:04:29;95760.81;;;11.15
24201;BMP280;2801;50.972;7.856;2023-10-31T02:06:56;95756.22;;;11.16
24201;BMP280;2801;50.972;7.856;2023-10-31T02:09:24;95761.16;;;11.10
24201;BMP280;2801;50.972;7.856;2023-10-31T02:11:54;95769.25;;;11.14
24201;BMP280;2801;50.972;7.856;2023-10-31T02:14:23;95773.38;;;11.08
24201;BMP280;2801;50.972;7.856;2023-10-31T02:16:51;95778.66;;;11.01
24201;BMP280;2801;50.972;7.856;2023-10-31T02:19:21;95784.00;;;10.97
24201;BMP280;2801;50.972;7.856;2023-10-31T02:21:49;95774.72;;;10.91
24201;BMP280;2801;50.972;7.856;2023-10-31T02:24:17;95775.81;;;10.87
24201;BMP280;2801;50.972;7.856;2023-10-31T02:26:44;95786.88;;;10.85
24201;BMP280;2801;50.972;7.856;2023-10-31T02:29:13;95788.03;;;10.84
24201;BMP280;2801;50.972;7.856;2023-10-31T02:31:40;95793.28;;;10.77
24201;BMP280;2801;50.972;7.856;2023-10-31T02:34:07;95792.84;;;10.72
24201;BMP280;2801;50.972;7.856;2023-10-31T02:36:34;95791.31;;;10.71
24201;BMP280;2801;50.972;7.856;2023-10-31T02:39:01;95797.44;;;10.71
24201;BMP280;2801;50.972;7.856;2023-10-31T02:41:29;95803.91;;;10.70
24201;BMP280;2801;50.972;7.856;2023-10-31T02:43:56;95802.34;;;10.66
24201;BMP280;2801;50.972;7.856;2023-10-31T02:46:24;95803.53;;;10.68
24201;BMP280;2801;50.972;7.856;2023-10-31T02:48:51;95807.25;;;10.60
24201;BMP280;2801;50.972;7.856;2023-10-31T02:51:19;95806.09;;;10.61
24201;BMP280;2801;50.972;7.856;2023-10-31T02:53:46;95804.13;;;10.58
24201;BMP280;2801;50.972;7.856;2023-10-31T02:56:13;95816.00;;;10.57
24201;BMP280;2801;50.972;7.856;2023-10-31T02:58:40;95806.72;;;10.51
24201;BMP280;2801;50.972;7.856;2023-10-31T03:01:08;95806.78;;;10.55
24201;BMP280;2801;50.972;7.856;2023-10-31T03:03:35;95803.75;;;10.56
24201;BMP280;2801;50.972;7.856;2023-10-31T03:06:02;95802.19;;;10.55
24201;BMP280;2801;50.972;7.856;2023-10-31T03:08:29;95792.97;;;10.53
24201;BMP280;2801;50.972;7.856;2023-10-31T03:10:56;95792.72;;;10.61
24201;BMP280;2801;50.972;7.856;2023-10-31T03:13:23;95797.56;;;10.52
24201;BMP280;2801;50.972;7.856;2023-10-31T03:15:50;95794.78;;;10.45
24201;BMP280;2801;50.972;7.856;2023-10-31T03:18:17;95804.78;;;10.48
24201;BMP280;2801;50.972;7.856;2023-10-31T03:20:46;95809.78;;;10.50
24201;BMP280;2801;50.972;7.856;2023-10-31T03:23:13;95815.44;;;10.45
24201;BMP280;2801;50.972;7.856;2023-10-31T03:25:41;95818.91;;;10.45
24201;BMP280;2801;50.972;7.856;2023-10-31T03:28:19;95807.00;;;10.43
24201;BMP280;2801;50.972;7.856;2023-10-31T03:30:47;95807.50;;;10.52
24201;BMP280;2801;50.972;7.856;2023-10-31T03:33:15;95804.78;;;10.48
24201;BMP280;2801;50.972;7.856;2023-10-31T03:35:47;95818.19;;;10.48
24201;BMP280;2801;50.972;7.856;2023-10-31T03:38:14;95817.81;;;10.50
24201;BMP280;2801;50.972;7.856;2023-10-31T03:40:42;95830.00;;;10.47
24201;BMP280;2801;50.972;7.856;2023-10-31T03:43:09;95825.44;;;10.48
24201;BMP280;2801;50.972;7.856;2023-10-31T03:45:36;95825.53;;;10.55
24201;BMP280;2801;50.972;7.856;2023-10-31T03:48:03;95832.03;;;10.54
24201;BMP280;2801;50.972;7.856;2023-10-31T03:50:30;95842.38;;;10.55
24201;BMP280;2801;50.972;7.856;2023-10-31T03:52:59;95843.88;;;10.53
24201;BMP280;2801;50.972;7.856;2023-10-31T03:55:26;95848.47;;;10.52
24201;BMP280;2801;50.972;7.856;2023-10-31T03:57:53;95848.03;;;10.50
24201;BMP280;2801;50.972;7.856;2023-10-31T04:00:20;95849.19;;;10.49
24201;BMP280;2801;50.972;7.856;2023-10-31T04:02:47;95840.38;;;10.49
24201;BMP280;2801;50.972;7.856;2023-10-31T04:05:16;95856.09;;;10.50
24201;BMP280;2801;50.972;7.856;2023-10-31T04:07:45;95851.88;;;10.49
24201;BMP280;2801;50.972;7.856;2023-10-31T04:10:13;95854.47;;;10.46
24201;BMP280;2801;50.972;7.856;2023-10-31T04:12:41;95849.97;;;10.50
24201;BMP280;2801;50.972;7.856;2023-10-31T04:15:09;95848.00;;;10.47
24201;BMP280;2801;50.972;7.856;2023-10-31T04:17:38;95858.75;;;10.50
24201;BMP280;2801;50.972;7.856;2023-10-31T04:20:06;95854.38;;;10.39
24201;BMP280;2801;50.972;7.856;2023-10-31T04:22:33;95855.56;;;10.41
24201;BMP280;2801;50.972;7.856;2023-10-31T04:25:00;95863.59;;;10.41
24201;BMP280;2801;50.972;7.856;2023-10-31T04:27:30;95863.91;;;10.36
24201;BMP280;2801;50.972;7.856;2023-10-31T04:29:58;95870.38;;;10.35
24201;BMP280;2801;50.972;7.856;2023-10-31T04:32:25;95861.53;;;10.31
24201;BMP280;2801;50.972;7.856;2023-10-31T04:34:52;95869.50;;;10.28
24201;BMP280;2801;50.972;7.856;2023-10-31T04:37:19;95863.03;;;10.29
24201;BMP280;2801;50.972;7.856;2023-10-31T04:39:46;95864.56;;;10.30
24201;BMP280;2801;50.972;7.856;2023-10-31T04:42:13;95873.31;;;10.27
24201;BMP280;2801;50.972;7.856;2023-10-31T04:44:40;95883.19;;;10.23
24201;BMP280;2801;50.972;7.856;2023-10-31T04:47:07;95887.00;;;10.22
24201;BMP280;2801;50.972;7.856;2023-10-31T04:49:35;95890.47;;;10.22
24201;BMP280;2801;50.972;7.856;2023-10-31T04:52:07;95883.06;;;10.16
24201;BMP280;2801;50.972;7.856;2023-10-31T04:54:34;95883.44;;;10.14
24201;BMP280;2801;50.972;7.856;2023-10-31T04:57:02;95898.06;;;10.20
24201;BMP280;2801;50.972;7.856;2023-10-31T04:59:33;95894.91;;;10.15
24201;BMP280;2801;50.972;7.856;2023-10-31T05:02:00;95889.16;;;10.13
24201;BMP280;2801;50.972;7.856;2023-10-31T05:04:27;95893.72;;;10.12
24201;BMP280;2801;50.972;7.856;2023-10-31T05:06:55;95894.44;;;10.09
24201;BMP280;2801;50.972;7.856;2023-10-31T05:09:23;95896.75;;;10.11
24201;BMP280;2801;50.972;7.856;2023-10-31T05:11:50;95902.59;;;10.16
24201;BMP280;2801;50.972;7.856;2023-10-31T05:14:19;95903.66;;;10.12
24201;BMP280;2801;50.972;7.856;2023-10-31T05:16:46;95903.38;;;10.17
24201;BMP280;2801;50.972;7.856;2023-10-31T05:19:13;95905.28;;;10.16
24201;BMP280;2801;50.972;7.856;2023-10-31T05:21:42;95910.56;;;10.13
24201;BMP280;2801;50.972;7.856;2023-10-31T05:24:09;95907.56;;;10.14
24201;BMP280;2801;50.972;7.856;2023-10-31T05:26:39;95908.66;;;10.13
24201;BMP280;2801;50.972;7.856;2023-10-31T05:29:06;95905.69;;;10.18
24201;BMP280;2801;50.972;7.856;2023-10-31T05:31:34;95918.31;;;10.18
24201;BMP280;2801;50.972;7.856;2023-10-31T05:34:01;95923.31;;;10.19
24201;BMP280;2801;50.972;7.856;2023-10-31T05:36:30;95927.53;;;10.20
24201;BMP280;2801;50.972;7.856;2023-10-31T05:38:59;95926.78;;;10.20
24201;BMP280;2801;50.972;7.856;2023-10-31T05:41:26;95934.84;;;10.23
24201;BMP280;2801;50.972;7.856;2023-10-31T05:43:53;95939.84;;;10.25
24201;BMP280;2801;50.972;7.856;2023-10-31T05:46:20;95945.56;;;10.23
24201;BMP280;2801;50.972;7.856;2023-10-31T05:48:48;95948.59;;;10.22
24201;BMP280;2801;50.972;7.856;2023-10-31T05:51:18;95949.28;;;10.19
24201;BMP280;2801;50.972;7.856;2023-10-31T05:53:48;95955.44;;;10.19
24201;BMP280;2801;50.972;7.856;2023-10-31T05:56:16;95953.09;;;10.18
24201;BMP280;2801;50.972;7.856;2023-10-31T05:58:44;95960.31;;;10.14
24201;BMP280;2801;50.972;7.856;2023-10-31T06:01:11;95957.97;;;10.12
24201;BMP280;2801;50.972;7.856;2023-10-31T06:03:42;95963.03;;;10.17
24201;BMP280;2801;50.972;7.856;2023-10-31T06:06:12;95960.34;;;10.17
24201;BMP280;2801;50.972;7.856;2023-10-31T06:08:41;95964.97;;;10.17
24201;BMP280;2801;50.972;7.856;2023-10-31T06:11:09;95968.13;;;10.22
24201;BMP280;2801;50.972;7.856;2023-10-31T06:13:40;95973.41;;;10.19
24201;BMP280;2801;50.972;7.856;2023-10-31T06:16:07;95977.91;;;10.15
24201;BMP280;2801;50.972;7.856;2023-10-31T06:18:34;95970.66;;;10.15
24201;BMP280;2801;50.972;7.856;2023-10-31T06:21:02;95966.44;;;10.14
24201;BMP280;2801;50.972;7.856;2023-10-31T06:23:30;95972.22;;;10.16
24201;BMP280;2801;50.972;7.856;2023-10-31T06:25:58;95980.59;;;10.15
24201;BMP280;2801;50.972;7.856;2023-10-31T06:28:27;95978.69;;;10.15
24201;BMP280;2801;50.972;7.856;2023-10-31T06:30:54;95993.13;;;10.11
24201;BMP280;2801;50.972;7.856;2023-10-31T06:33:21;95990.06;;;10.09
24201;BMP280;2801;50.972;7.856;2023-10-31T06:35:48;95989.31;;;10.12
24201;BMP280;2801;50.972;7.856;2023-10-31T06:38:15;95992.38;;;10.10
24201;BMP280;2801;50.972;7.856;2023-10-31T06:40:42;95998.09;;;10.09
24201;BMP280;2801;50.972;7.856;2023-10-31T06:43:11;96003.00;;;10.07
24201;BMP280;2801;50.972;7.856;2023-10-31T06:45:38;95993.84;;;10.08
24201;BMP280;2801;50.972;7.856;2023-10-31T06:48:06;95995.75;;;10.07
24201;BMP280;2801;50.972;7.856;2023-10-31T06:50:36;96001.88;;;10.08
24201;BMP280;2801;50.972;7.856;2023-10-31T06:53:03;95998.28;;;10.00
24201;BMP280;2801;50.972;7.856;2023-10-31T06:55:30;96011.66;;;10.00
24201;BMP280;2801;50.972;7.856;2023-10-31T06:57:57;96007.44;;;9.99
24201;BMP280;2801;50.972;7.856;2023-10-31T07:00:24;96008.97;;;10.00
24201;BMP280;2801;50.972;7.856;2023-10-31T07:02:52;96012.06;;;10.02
24201;BMP280;2801;50.972;7.856;2023-10-31T07:05:19;96015.09;;;10.01
24201;BMP280;2801;50.972;7.856;2023-10-31T07:07:47;96017.53;;;10.06
24201;BMP280;2801;50.972;7.856;2023-10-31T07:10:15;96007.94;;;10.05
24201;BMP280;2801;50.972;7.856;2023-10-31T07:12:42;96016.41;;;10.07
24201;BMP280;2801;50.972;7.856;2023-10-31T07:15:09;96016.41;;;10.07
24201;BMP280;2801;50.972;7.856;2023-10-31T07:17:36;96020.97;;;10.06
24201;BMP280;2801;50.972;7.856;2023-10-31T07:20:06;96025.22;;;10.07
24201;BMP280;2801;50.972;7.856;2023-10-31T07:22:35;96034.44;;;10.10
24201;BMP280;2801;50.972;7.856;2023-10-31T07:25:03;96036.31;;;10.09
24201;BMP280;2801;50.972;7.856;2023-10-31T07:27:30;96038.84;;;10.02
24201;BMP280;2801;50.972;7.856;2023-10-31T07:29:59;96038.66;;;10.11
24201;BMP280;2801;50.972;7.856;2023-10-31T07:32:26;96050.16;;;10.11
24201;BMP280;2801;50.972;7.856;2023-10-31T07:34:54;96052.47;;;10.13
24201;BMP280;2801;50.972;7.856;2023-10-31T07:37:21;96058.53;;;10.10
24201;BMP280;2801;50.972;7.856;2023-10-31T07:39:48;96055.50;;;10.11
24201;BMP280;2801;50.972;7.856;2023-10-31T07:42:17;96062.34;;;10.09
24201;BMP280;2801;50.972;7.856;2023-10-31T07:44:44;96068.53;;;10.13
24201;BMP280;2801;50.972;7.856;2023-10-31T07:47:11;96070.78;;;10.11
24201;BMP280;2801;50.972;7.856;2023-10-31T07:49:38;96072.69;;;10.10
24201;BMP280;2801;50.972;7.856;2023-10-31T07:52:05;96066.63;;;10.13
24201;BMP280;2801;50.972;7.856;2023-10-31T07:54:32;96074.66;;;10.13
24201;BMP280;2801;50.972;7.856;2023-10-31T07:57:02;96073.91;;;10.13
24201;BMP280;2801;50.972;7.856;2023-10-31T07:59:33;96075.38;;;10.10
24201;BMP280;2801;50.972;7.856;2023-10-31T08:02:01;96083.41;;;10.10
24201;BMP280;2801;50.972;7.856;2023-10-31T08:04:30;96092.91;;;10.08
24201;BMP280;2801;50.972;7.856;2023-10-31T08:06:57;96086.84;;;10.11
24201;BMP280;2801;50.972;7.856;2023-10-31T08:09:25;96107.56;;;10.14
24201;BMP280;2801;50.972;7.856;2023-10-31T08:11:52;96099.03;;;10.08
24201;BMP280;2801;50.972;7.856;2023-10-31T08:14:19;96100.94;;;10.08
24201;BMP280;2801;50.972;7.856;2023-10-31T08:16:52;96111.38;;;10.13
24201;BMP280;2801;50.972;7.856;2023-10-31T08:19:19;96118.97;;;10.11
24201;BMP280;2801;50.972;7.856;2023-10-31T08:21:46;96115.53;;;10.10
24201;BMP280;2801;50.972;7.856;2023-10-31T08:24:13;96119.41;;;10.13
24201;BMP280;2801;50.972;7.856;2023-10-31T08:26:40;96132.00;;;10.12
24201;BMP280;2801;50.972;7.856;2023-10-31T08:29:08;96129.34;;;10.12
24201;BMP280;2801;50.972;7.856;2023-10-31T08:31:36;96132.06;;;10.16
24201;BMP280;2801;50.972;7.856;2023-10-31T08:34:03;96138.22;;;10.16
24201;BMP280;2801;50.972;7.856;2023-10-31T08:36:30;96143.22;;;10.18
24201;BMP280;2801;50.972;7.856;2023-10-31T08:38:57;96142.88;;;10.19
24201;BMP280;2801;50.972;7.856;2023-10-31T08:41:24;96147.53;;;10.22
24201;BMP280;2801;50.972;7.856;2023-10-31T08:43:52;96150.41;;;10.14
24201;BMP280;2801;50.972;7.856;2023-10-31T08:46:19;96162.66;;;10.15
24201;BMP280;2801;50.972;7.856;2023-10-31T08:48:46;96155.81;;;10.17
24201;BMP280;2801;50.972;7.856;2023-10-31T08:51:13;96156.31;;;10.23
24201;BMP280;2801;50.972;7.856;2023-10-31T08:53:40;96169.31;;;10.21
24201;BMP280;2801;50.972;7.856;2023-10-31T08:56:08;96170.84;;;10.22
24201;BMP280;2801;50.972;7.856;2023-10-31T08:58:35;96175.50;;;10.25
24201;BMP280;2801;50.972;7.856;2023-10-31T09:01:02;96180.44;;;10.23
24201;BMP280;2801;50.972;7.856;2023-10-31T09:03:30;96178.25;;;10.28
24201;BMP280;2801;50.972;7.856;2023-10-31T09:05:58;96187.84;;;10.29
24201;BMP280;2801;50.972;7.856;2023-10-31T09:08:25;96183.75;;;10.35
24201;BMP280;2801;50.972;7.856;2023-10-31T09:10:52;96199.47;;;10.37
24201;BMP280;2801;50.972;7.856;2023-10-31T09:13:19;96208.28;;;10.37
24201;BMP280;2801;50.972;7.856;2023-10-31T09:15:47;96210.53;;;10.35
24201;BMP280;2801;50.972;7.856;2023-10-31T09:18:14;96212.47;;;10.35
24201;BMP280;2801;50.972;7.856;2023-10-31T09:20:41;96212.81;;;10.33
24201;BMP280;2801;50.972;7.856;2023-10-31T09:23:08;96217.31;;;10.29
24201;BMP280;2801;50.972;7.856;2023-10-31T09:25:35;96227.81;;;10.38
24201;BMP280;2801;50.972;7.856;2023-10-31T09:28:02;96222.78;;;10.36
24201;BMP280;2801;50.972;7.856;2023-10-31T09:30:29;96233.88;;;10.35
24201;BMP280;2801;50.972;7.856;2023-10-31T09:32:56;96241.53;;;10.36
24201;BMP280;2801;50.972;7.856;2023-10-31T09:35:24;96239.25;;;10.35
24201;BMP280;2801;50.972;7.856;2023-10-31T09:37:53;96248.03;;;10.35
24201;BMP280;2801;50.972;7.856;2023-10-31T09:40:21;96243.53;;;10.39
24201;BMP280;2801;50.972;7.856;2023-10-31T09:42:48;96247.69;;;10.37
24201;BMP280;2801;50.972;7.856;2023-10-31T09:45:18;96254.25;;;10.39
24201;BMP280;2801;50.972;7.856;2023-10-31T09:47:46;96252.00;;;10.41
24201;BMP280;2801;50.972;7.856;2023-10-31T09:50:13;96247.41;;;10.42
24201;BMP280;2801;50.972;7.856;2023-10-31T09:52:40;96254.34;;;10.43
24201;BMP280;2801;50.972;7.856;2023-10-31T09:55:11;96253.25;;;10.47
24201;BMP280;2801;50.972;7.856;2023-10-31T09:57:38;96257.66;;;10.55
24201;BMP280;2801;50.972;7.856;2023-10-31T10:00:06;96258.44;;;10.56
24201;BMP280;2801;50.972;7.856;2023-10-31T10:02:33;96265.44;;;10.60
24201;BMP280;2801;50.972;7.856;2023-10-31T10:05:01;96265.56;;;10.67
24201;BMP280;2801;50.972;7.856;2023-10-31T10:07:29;96266.91;;;10.77
24201;BMP280;2801;50.972;7.856;2023-10-31T10:09:56;96267.47;;;10.86
24201;BMP280;2801;50.972;7.856;2023-10-31T10:12:23;96267.69;;;10.96
24201;BMP280;2801;50.972;7.856;2023-10-31T10:14:50;96260.97;;;11.06
24201;BMP280;2801;50.972;7.856;2023-10-31T10:17:24;96268.38;;;11.12
24201;BMP280;2801;50.972;7.856;2023-10-31T10:20:10;96273.88;;;11.19
24201;BMP280;2801;50.972;7.856;2023-10-31T10:22:42;96277.81;;;11.25
24201;BMP280;2801;50.972;7.856;2023-10-31T10:25:15;96274.44;;;11.28
24201;BMP280;2801;50.972;7.856;2023-10-31T10:27:45;96277.53;;;11.30
24201;BMP280;2801;50.972;7.856;2023-10-31T10:30:14;96280.56;;;11.29
24201;BMP280;2801;50.972;7.856;2023-10-31T10:32:41;96287.06;;;11.28
24201;BMP280;2801;50.972;7.856;2023-10-31T10:35:08;96290.22;;;11.33
24201;BMP280;2801;50.972;7.856;2023-10-31T10:37:38;96293.69;;;11.34
24201;BMP280;2801;50.972;7.856;2023-10-31T10:40:11;96296.31;;;11.30
24201;BMP280;2801;50.972;7.856;2023-10-31T10:42:46;96298.97;;;11.30
24201;BMP280;2801;50.972;7.856;2023-10-31T10:45:16;96296.44;;;11.38
24201;BMP280;2801;50.972;7.856;2023-10-31T10:47:48;96294.59;;;11.42
24201;BMP280;2801;50.972;7.856;2023-10-31T10:50:19;96303.06;;;11.44
24201;BMP280;2801;50.972;7.856;2023-10-31T10:53:21;96305.69;;;11.40
24201;BMP280;2801;50.972;7.856;2023-10-31T10:55:55;96315.56;;;11.36
24201;BMP280;2801;50.972;7.856;2023-10-31T11:01:17;96306.13;;;11.23
24201;BMP280;2801;50.972;7.856;2023-10-31T11:03:46;96303.38;;;11.19
24201;BMP280;2801;50.972;7.856;2023-10-31T11:06:14;96310.00;;;11.25
24201;BMP280;2801;50.972;7.856;2023-10-31T11:08:42;96302.75;;;11.26
24201;BMP280;2801;50.972;7.856;2023-10-31T11:11:10;96299.13;;;11.38
24201;BMP280;2801;50.972;7.856;2023-10-31T11:13:38;96290.50;;;11.48
24201;BMP280;2801;50.972;7.856;2023-10-31T11:16:16;96295.22;;;11.54
24201;BMP280;2801;50.972;7.856;2023-10-31T11:18:45;96295.66;;;11.56
24201;BMP280;2801;50.972;7.856;2023-10-31T11:21:12;96291.63;;;11.66
24201;BMP280;2801;50.972;7.856;2023-10-31T11:23:40;96284.09;;;11.75
24201;BMP280;2801;50.972;7.856;2023-10-31T11:26:08;96292.97;;;11.79
24201;BMP280;2801;50.972;7.856;2023-10-31T11:28:37;96291.22;;;11.86
24201;BMP280;2801;50.972;7.856;2023-10-31T11:31:08;96291.72;;;11.95
24201;BMP280;2801;50.972;7.856;2023-10-31T11:33:39;96292.69;;;12.06
24201;BMP280;2801;50.972;7.856;2023-10-31T11:36:07;96301.22;;;12.12
24201;BMP280;2801;50.972;7.856;2023-10-31T11:38:38;96287.88;;;12.19
24201;BMP280;2801;50.972;7.856;2023-10-31T11:41:05;96292.63;;;12.29
24201;BMP280;2801;50.972;7.856;2023-10-31T11:46:20;96290.06;;;12.36
24201;BMP280;2801;50.972;7.856;2023-10-31T11:48:51;96287.72;;;12.34
24201;BMP280;2801;50.972;7.856;2023-10-31T11:51:19;96291.22;;;12.38
24201;BMP280;2801;50.972;7.856;2023-10-31T11:53:48;96288.94;;;12.37
24201;BMP280;2801;50.972;7.856;2023-10-31T11:56:20;96302.84;;;12.42
24201;BMP280;2801;50.972;7.856;2023-10-31T11:59:06;96291.22;;;12.38
24201;BMP280;2801;50.972;7.856;2023-10-31T12:01:46;96295.13;;;12.41
24201;BMP280;2801;50.972;7.856;2023-10-31T12:04:23;96305.53;;;12.42
24201;BMP280;2801;50.972;7.856;2023-10-31T12:06:59;96298.28;;;12.46
24201;BMP280;2801;50.972;7.856;2023-10-31T12:09:31;96300.69;;;12.55
24201;BMP280;2801;50.972;7.856;2023-10-31T12:11:59;96298.06;;;12.58
24201;BMP280;2801;50.972;7.856;2023-10-31T12:14:26;96301.94;;;12.61
24201;BMP280;2801;50.972;7.856;2023-10-31T12:16:53;96303.84;;;12.60
24201;BMP280;2801;50.972;7.856;2023-10-31T12:19:22;96300.69;;;12.55
24201;BMP280;2801;50.972;7.856;2023-10-31T12:21:49;96302.44;;;12.44
24201;BMP280;2801;50.972;7.856;2023-10-31T12:24:18;96307.44;;;12.42
24201;BMP280;2801;50.972;7.856;2023-10-31T12:26:46;96312.47;;;12.47
24201;BMP280;2801;50.972;7.856;2023-10-31T12:31:47;96315.84;;;12.40
24201;BMP280;2801;50.972;7.856;2023-10-31T12:34:16;96313.03;;;12.33
24201;BMP280;2801;50.972;7.856;2023-10-31T12:36:47;96309.19;;;12.31
24201;BMP280;2801;50.972;7.856;2023-10-31T12:39:16;96319.44;;;12.25
24201;BMP280;2801;50.972;7.856;2023-10-31T12:41:45;96318.75;;;12.28
24201;BMP280;2801;50.972;7.856;2023-10-31T12:44:19;96310.31;;;12.30
24201;BMP280;2801;50.972;7.856;2023-10-31T12:46:47;96312.69;;;12.35
24201;BMP280;2801;50.972;7.856;2023-10-31T12:49:19;96314.22;;;12.36
24201;BMP280;2801;50.972;7.856;2023-10-31T12:52:03;96304.16;;;12.29
24201;BMP280;2801;50.972;7.856;2023-10-31T12:54:37;96303.13;;;12.37
24201;BMP280;2801;50.972;7.856;2023-10-31T12:57:08;96311.72;;;12.46
24201;BMP280;2801;50.972;7.856;2023-10-31T12:59:38;96302.31;;;12.33
24201;BMP280;2801;50.972;7.856;2023-10-31T13:02:07;96313.25;;;12.21
24201;BMP280;2801;50.972;7.856;2023-10-31T13:04:36;96309.03;;;12.20
24201;BMP280;2801;50.972;7.856;2023-10-31T13:07:06;96322.38;;;12.17
24201;BMP280;2801;50.972;7.856;2023-10-31T13:09:38;96320.00;;;12.12
24201;BMP280;2801;50.972;7.856;2023-10-31T13:12:08;96323.41;;;12.09
24201;BMP280;2801;50.972;7.856;2023-10-31T13:14:35;96328.38;;;12.07
24201;BMP280;2801;50.972;7.856;2023-10-31T13:17:06;96327.63;;;12.10
24201;BMP280;2801;50.972;7.856;2023-10-31T13:19:33;96324.94;;;12.10
24201;BMP280;2801;50.972;7.856;2023-10-31T13:22:00;96323.09;;;12.14
24201;BMP280;2801;50.972;7.856;2023-10-31T13:24:27;96335.09;;;12.20
24201;BMP280;2801;50.972;7.856;2023-10-31T13:26:54;96328.31;;;12.26
24201;BMP280;2801;50.972;7.856;2023-10-31T13:29:22;96338.03;;;12.34
24201;BMP280;2801;50.972;7.856;2023-10-31T13:31:52;96339.69;;;12.42
24201;BMP280;2801;50.972;7.856;2023-10-31T13:34:19;96330.63;;;12.53
24201;BMP280;2801;50.972;7.856;2023-10-31T13:36:47;96327.56;;;12.55
24201;BMP280;2801;50.972;7.856;2023-10-31T13:39:18;96336.06;;;12.57
24201;BMP280;2801;50.972;7.856;2023-10-31T13:41:45;96333.84;;;12.62
24201;BMP280;2801;50.972;7.856;2023-10-31T13:44:12;96336.09;;;12.60
24201;BMP280;2801;50.972;7.856;2023-10-31T13:46:39;96334.97;;;12.61
24201;BMP280;2801;50.972;7.856;2023-10-31T13:49:06;96340.03;;;12.66
24201;BMP280;2801;50.972;7.856;2023-10-31T13:51:34;96335.88;;;12.72
24201;BMP280;2801;50.972;7.856;2023-10-31T13:54:01;96342.13;;;12.76
24201;BMP280;2801;50.972;7.856;2023-10-31T13:56:29;96335.31;;;12.86
24201;BMP280;2801;50.972;7.856;2023-10-31T13:58:58;96342.28;;;12.90
24201;BMP280;2801;50.972;7.856;2023-10-31T14:01:25;96342.00;;;12.95
24201;BMP280;2801;50.972;7.856;2023-10-31T14:03:53;96344.28;;;12.97
24201;BMP280;2801;50.972;7.856;2023-10-31T14:06:20;96348.56;;;12.98
24201;BMP280;2801;50.972;7.856;2023-10-31T14:08:47;96360.91;;;13.02
24201;BMP280;2801;50.972;7.856;2023-10-31T14:11:14;96359.22;;;12.91
24201;BMP280;2801;50.972;7.856;2023-10-31T14:13:42;96364.59;;;12.91
24201;BMP280;2801;50.972;7.856;2023-10-31T14:16:11;96360.66;;;12.85
24201;BMP280;2801;50.972;7.856;2023-10-31T14:18:39;96359.38;;;12.75
24201;BMP280;2801;50.972;7.856;2023-10-31T14:21:08;96358.19;;;12.73
24201;BMP280;2801;50.972;7.856;2023-10-31T14:23:35;96369.72;;;12.73
24201;BMP280;2801;50.972;7.856;2023-10-31T14:26:03;96368.06;;;12.65
24201;BMP280;2801;50.972;7.856;2023-10-31T14:28:30;96366.22;;;12.47
24201;BMP280;2801;50.972;7.856;2023-10-31T14:30:57;96371.69;;;12.50
24201;BMP280;2801;50.972;7.856;2023-10-31T14:33:24;96374.72;;;12.49
24201;BMP280;2801;50.972;7.856;2023-10-31T14:35:51;96381.66;;;12.50